Terminal Aerodrome Forecast
Issued by NWS

Current Version | Previous Version | Text Only | Print | Product List | Glossary Off
Versions: 1 2 3 4 5 6 7 8 9 10 11 12 13 14 15 16 17 18 19

268
FTUS41 KILN 090532
TAFLCK
TAF
KLCK 090532Z 0906/1006 29012KT 4SM -SN OVC015
      TEMPO 0906/0910 1SM -SN OVC008
     FM091500 28012G20KT P6SM -SHSN OVC018
     FM092300 28014G20KT 5SM -SHSN OVC025=

USA.gov is the U.S. government's official web portal to all federal, state and local government web resources and services.